KEEO

Details ICAO KEEO
Name MEEKER
Region United States
Timezone America/Denver (UTC-7.0)
Plans Departing 2
Arriving 3
Stats Elevation 6,421 ft / 1,957 m (AMSL)
Location 40.048802° -107.885918°
Runways 1
Magnetic Variation 9.662° E
Sunrise 2017-12-11 14:25:06 UTC / 2017-12-11 07:25:06 Local
Sunset 2017-12-11 23:47:40 UTC / 2017-12-11 16:47:40 Local
Advertisement - Login to hide

Runways

ID Width Length Bearing (true) Bearing (mag) Surface Threshold Offset Overrun Length
03 60 ft / 18 m 6,500 ft / 1,981 m 39.43° 29.77° Asphalt 0 ft / 0 m 0 ft / 0 m
21 60 ft / 18 m 6,500 ft / 1,981 m 219.44° 209.78° Asphalt 500 ft / 152 m 0 ft / 0 m

Map

Weather


0- 5 10 15 20 25 30 35+ Temperature / ° C

Clouds and Precipitation
Forecast for 2017-12-11 12:00 UTC. Updated 38 minutes ago

Ground ~20,000 ft ~40,000 ft Winds

METAR

KEEO 111053Z AUTO 00000KT 10SM CLR M12/M16 A3055 RMK AO2 SLP366 T11171161

TAF

Not found

Frequencies

Recorded 135.52 MHz ASOS
Unicom 122.80 MHz CTAF/UNICOM
Warning: Do not use this data for real-world aviation or navigation. No guarantee of current accuracy is given.